createdAt,value
2022-09-12T00:01:13.617Z,1.00
2022-09-12T00:03:41.252Z,1.30
2022-09-12T00:06:11.869Z,1.10
2022-09-12T00:08:39.599Z,1.20
2022-09-12T00:11:09.628Z,1.50
2022-09-12T00:13:41.665Z,1.20
2022-09-12T00:16:17.171Z,1.33
2022-09-12T00:18:46.527Z,1.42
2022-09-12T00:21:14.908Z,1.40
2022-09-12T00:23:42.430Z,1.20
2022-09-12T00:26:09.938Z,1.40
2022-09-12T00:28:38.849Z,1.20
2022-09-12T00:31:12.224Z,1.50
2022-09-12T00:33:40.359Z,1.40
2022-09-12T00:36:14.539Z,1.40
2022-09-12T00:38:43.193Z,1.42
2022-09-12T00:41:32.179Z,1.30
2022-09-12T00:44:12.859Z,1.52
2022-09-12T00:46:50.878Z,1.60
2022-09-12T00:49:39.111Z,1.45
2022-09-12T00:52:08.999Z,1.60
2022-09-12T00:54:55.928Z,1.30
2022-09-12T00:57:28.230Z,1.40
2022-09-12T01:00:20.831Z,1.60
2022-09-12T01:02:53.368Z,1.52
2022-09-12T01:05:22.638Z,1.92
2022-09-12T01:07:52.008Z,1.40
2022-09-12T01:10:20.618Z,1.23
2022-09-12T01:12:48.862Z,1.50
2022-09-12T01:15:16.389Z,1.00
2022-09-12T01:17:57.989Z,1.50
2022-09-12T01:20:51.758Z,1.70
2022-09-12T01:24:09.709Z,1.40
2022-09-12T01:27:07.959Z,1.30
2022-09-12T01:30:04.844Z,1.65
2022-09-12T01:33:04.459Z,1.75
2022-09-12T01:35:35.498Z,1.13
2022-09-12T01:38:05.899Z,1.38
2022-09-12T01:41:02.159Z,1.58
2022-09-12T01:44:05.020Z,1.35
2022-09-12T01:46:41.389Z,1.50
2022-09-12T01:49:20.128Z,1.52
2022-09-12T01:52:18.929Z,1.38
2022-09-12T01:54:59.939Z,1.40
2022-09-12T01:57:43.469Z,1.45
2022-09-12T02:03:15.101Z,1.20
2022-09-12T02:05:54.270Z,1.48
2022-09-12T02:08:31.719Z,1.48
2022-09-12T02:11:06.890Z,1.25
2022-09-12T02:13:48.089Z,1.48
2022-09-12T02:16:20.772Z,1.60
2022-09-12T02:18:53.769Z,1.52
2022-09-12T02:21:23.869Z,1.35
2022-09-12T02:24:02.560Z,1.40
2022-09-12T02:26:35.689Z,1.55
2022-09-12T02:29:04.758Z,1.40
2022-09-12T02:31:32.118Z,1.85
2022-09-12T02:34:20.349Z,1.25
2022-09-12T02:37:06.030Z,1.40
2022-09-12T02:39:34.019Z,1.67
2022-09-12T02:42:02.429Z,1.60
2022-09-12T02:44:32.928Z,1.27
2022-09-12T02:47:09.060Z,1.33
2022-09-12T02:49:36.518Z,1.25
2022-09-12T02:52:04.642Z,1.50
2022-09-12T02:54:32.649Z,1.30
2022-09-12T02:57:00.019Z,1.50
2022-09-12T02:59:27.689Z,1.33
2022-09-12T03:02:06.159Z,1.35
2022-09-12T03:05:07.612Z,1.60
2022-09-12T03:07:51.058Z,1.25
2022-09-12T03:10:37.119Z,1.48
2022-09-12T03:13:24.879Z,1.05
2022-09-12T03:16:08.853Z,1.40
2022-09-12T03:19:03.973Z,1.27
2022-09-12T03:21:43.130Z,1.48
2022-09-12T03:24:21.761Z,1.35
2022-09-12T03:26:55.439Z,1.45
2022-09-12T03:29:24.959Z,1.25
2022-09-12T03:31:55.768Z,1.40
2022-09-12T03:34:24.749Z,1.40
2022-09-12T03:36:52.989Z,1.40
2022-09-12T03:39:21.279Z,1.30
2022-09-12T03:41:48.679Z,1.08
2022-09-12T03:44:16.259Z,1.40
2022-09-12T03:46:43.719Z,1.50
2022-09-12T03:49:11.428Z,1.45
2022-09-12T03:51:40.093Z,1.20
2022-09-12T03:54:07.748Z,1.17
2022-09-12T03:56:36.249Z,1.58
2022-09-12T03:59:07.078Z,1.33
2022-09-12T04:01:34.811Z,1.25
2022-09-12T04:04:02.395Z,1.40
2022-09-12T04:06:30.115Z,1.13
2022-09-12T04:08:57.504Z,1.00
2022-09-12T04:11:25.063Z,1.42
2022-09-12T04:13:52.776Z,0.95
2022-09-12T04:16:20.756Z,1.30
2022-09-12T04:18:48.377Z,1.52
2022-09-12T04:21:19.584Z,1.60
2022-09-12T04:23:47.015Z,1.13
2022-09-12T04:26:14.865Z,1.10
2022-09-12T04:28:42.735Z,1.30
2022-09-12T04:31:20.285Z,1.40
2022-09-12T04:33:48.024Z,1.20
2022-09-12T04:36:17.664Z,1.33
2022-09-12T04:38:46.697Z,1.25
2022-09-12T04:41:16.511Z,1.20
2022-09-12T04:43:46.725Z,1.30
2022-09-12T04:46:16.294Z,1.38
2022-09-12T04:48:44.414Z,1.05
2022-09-12T04:51:17.882Z,1.33
2022-09-12T04:53:50.045Z,1.27
2022-09-12T04:56:17.946Z,1.20
2022-09-12T04:58:45.285Z,1.13
2022-09-12T05:01:18.441Z,1.27
2022-09-12T05:03:47.298Z,1.50
2022-09-12T05:06:23.786Z,1.20
2022-09-12T05:08:52.936Z,1.10
2022-09-12T05:11:25.434Z,1.33
2022-09-12T05:13:54.411Z,1.58
2022-09-12T05:16:22.876Z,1.38
2022-09-12T05:18:50.519Z,1.02
2022-09-12T05:21:21.399Z,1.30
2022-09-12T05:23:56.819Z,1.08
2022-09-12T05:26:24.597Z,1.20
2022-09-12T05:28:53.166Z,1.00
2022-09-12T05:31:29.455Z,0.95
2022-09-12T05:33:57.905Z,1.23
2022-09-12T05:36:30.545Z,1.30
2022-09-12T05:38:59.828Z,1.02
2022-09-12T05:41:34.065Z,1.30
2022-09-12T05:44:04.066Z,1.25
2022-09-12T05:46:36.146Z,1.00
2022-09-12T05:49:05.207Z,1.00
2022-09-12T05:51:35.485Z,1.13
2022-09-12T05:54:04.495Z,1.17
2022-09-12T05:56:34.426Z,1.00
2022-09-12T05:59:04.206Z,1.00
2022-09-12T06:01:33.830Z,1.10
2022-09-12T06:04:04.176Z,1.23
2022-09-12T06:06:32.837Z,1.00
2022-09-12T06:09:02.136Z,1.42
2022-09-12T06:11:33.480Z,1.20
2022-09-12T06:14:01.707Z,1.30
2022-09-12T06:16:33.650Z,1.33
2022-09-12T06:19:22.575Z,1.27
2022-09-12T06:21:51.826Z,8.60
2022-09-12T06:24:20.306Z,1.83
2022-09-12T06:26:52.901Z,1.08
2022-09-12T06:29:20.246Z,0.85
2022-09-12T06:31:47.585Z,0.98
2022-09-12T06:34:16.697Z,1.00
2022-09-12T06:36:48.945Z,0.75
2022-09-12T06:39:18.610Z,1.10
2022-09-12T06:41:46.475Z,1.17
2022-09-12T06:44:22.580Z,0.98
2022-09-12T06:47:08.985Z,0.93
2022-09-12T06:49:36.656Z,1.17
2022-09-12T06:52:04.053Z,0.88
2022-09-12T06:54:31.357Z,0.93
2022-09-12T06:56:58.794Z,1.33
2022-09-12T06:59:26.253Z,1.27
2022-09-12T07:01:53.575Z,1.15
2022-09-12T07:04:21.005Z,0.93
2022-09-12T07:06:48.305Z,1.20
2022-09-12T07:09:18.426Z,1.00
2022-09-12T07:11:46.611Z,0.80
2022-09-12T07:14:15.196Z,1.15
2022-09-12T07:16:42.834Z,1.60
2022-09-12T07:19:10.797Z,2.20
2022-09-12T07:21:40.627Z,1.00
2022-09-12T07:24:11.946Z,1.33
2022-09-12T07:26:40.785Z,1.08
2022-09-12T07:29:35.478Z,1.38
2022-09-12T07:32:02.015Z,1.17
2022-09-12T07:34:29.338Z,1.80
2022-09-12T07:36:56.627Z,1.00
2022-09-12T07:39:23.906Z,1.50
2022-09-12T07:41:51.605Z,1.42
2022-09-12T07:44:18.865Z,1.40
2022-09-12T07:46:46.395Z,1.52
2022-09-12T07:49:13.795Z,1.27
2022-09-12T07:51:41.355Z,0.98
2022-09-12T07:54:09.576Z,1.25
2022-09-12T07:56:39.354Z,1.10
2022-09-12T07:59:07.836Z,1.40
2022-09-12T08:01:35.541Z,1.45
2022-09-12T08:04:05.061Z,1.00
2022-09-12T08:06:36.169Z,1.13
2022-09-12T08:09:05.096Z,1.42
2022-09-12T08:11:32.625Z,1.48
2022-09-12T08:14:01.966Z,1.10
2022-09-12T08:16:33.226Z,1.20
2022-09-12T08:19:02.192Z,1.20
2022-09-12T08:21:33.736Z,1.10
2022-09-12T08:24:04.142Z,0.95
2022-09-12T08:26:32.909Z,1.30
2022-09-12T08:29:00.499Z,1.30
2022-09-12T08:31:28.590Z,1.38
2022-09-12T08:33:57.484Z,1.33
2022-09-12T08:36:27.909Z,1.63
2022-09-12T08:39:00.029Z,1.48
2022-09-12T08:41:38.265Z,1.70
2022-09-12T08:44:09.358Z,2.00
2022-09-12T08:46:48.750Z,1.30
2022-09-12T08:49:45.996Z,1.45
2022-09-12T08:52:29.874Z,1.30
2022-09-12T08:54:57.676Z,1.40
2022-09-12T08:57:24.975Z,1.38
2022-09-12T08:59:53.376Z,1.35
2022-09-12T09:02:42.666Z,1.48
2022-09-12T09:05:23.545Z,1.10
2022-09-12T09:08:27.056Z,1.92
2022-09-12T09:11:37.747Z,1.20
2022-09-12T09:14:32.476Z,1.30
2022-09-12T09:17:01.029Z,1.17
2022-09-12T09:19:38.177Z,1.40
2022-09-12T09:22:13.191Z,1.30
2022-09-12T09:24:53.535Z,0.90
2022-09-12T09:27:45.917Z,1.13
2022-09-12T09:30:19.212Z,1.23
2022-09-12T09:32:58.515Z,1.38
2022-09-12T09:35:44.208Z,1.00
2022-09-12T09:38:37.807Z,1.10
2022-09-12T09:41:33.218Z,1.13
2022-09-12T09:44:01.207Z,1.30
2022-09-12T09:46:28.761Z,1.23
2022-09-12T09:48:59.495Z,1.33
2022-09-12T09:51:32.563Z,1.50
2022-09-12T09:54:13.873Z,1.45
2022-09-12T09:56:45.285Z,1.40
2022-09-12T09:59:34.418Z,1.20
2022-09-12T10:02:24.414Z,1.40
2022-09-12T10:04:57.817Z,1.00
2022-09-12T10:07:27.445Z,2.20
2022-09-12T10:10:14.466Z,1.40
2022-09-12T10:12:42.205Z,1.30
2022-09-12T10:15:26.701Z,1.20
2022-09-12T10:17:55.984Z,1.10
2022-09-12T10:20:37.517Z,1.40
2022-09-12T10:23:37.904Z,1.30
2022-09-12T10:26:19.247Z,1.25
2022-09-12T10:28:56.165Z,1.45
2022-09-12T10:31:39.285Z,1.30
2022-09-12T10:34:06.865Z,1.40
2022-09-12T10:36:39.806Z,1.45
2022-09-12T10:39:16.299Z,1.17
2022-09-12T10:41:43.670Z,1.27
2022-09-12T10:44:28.027Z,1.77
2022-09-12T10:46:56.085Z,1.33
2022-09-12T10:49:25.080Z,1.30
2022-09-12T10:51:54.551Z,1.10
2022-09-12T10:54:25.096Z,1.23
2022-09-12T10:56:58.370Z,1.67
2022-09-12T10:59:42.850Z,1.17
2022-09-12T11:02:33.420Z,1.33
2022-09-12T11:05:19.490Z,1.20
2022-09-12T11:08:03.924Z,1.38
2022-09-12T11:10:37.310Z,1.30
2022-09-12T11:13:24.004Z,1.15
2022-09-12T11:16:21.929Z,1.50
2022-09-12T11:19:19.999Z,1.27
2022-09-12T11:22:00.401Z,0.90
2022-09-12T11:24:36.400Z,1.20
2022-09-12T11:27:36.052Z,1.77
2022-09-12T11:30:10.296Z,1.52
2022-09-12T11:33:01.621Z,1.05
2022-09-12T11:35:31.873Z,1.35
2022-09-12T11:38:13.900Z,1.33
2022-09-12T11:40:52.363Z,1.35
2022-09-12T11:43:25.520Z,1.33
2022-09-12T11:45:53.775Z,1.20
2022-09-12T11:48:46.947Z,1.05
2022-09-12T11:51:38.710Z,1.40
2022-09-12T11:54:23.430Z,1.30
2022-09-12T11:57:02.283Z,1.20
2022-09-12T11:59:39.432Z,1.50
2022-09-12T12:02:15.299Z,1.40
2022-09-12T12:05:15.470Z,1.27
2022-09-12T12:07:54.583Z,1.50
2022-09-12T12:10:43.070Z,1.40
2022-09-12T12:13:21.990Z,1.63
2022-09-12T12:15:53.721Z,1.40
2022-09-12T12:18:29.040Z,1.38
2022-09-12T12:20:57.388Z,1.33
2022-09-12T12:23:34.580Z,1.38
2022-09-12T12:26:04.671Z,1.77
2022-09-12T12:28:50.530Z,1.98
2022-09-12T12:31:18.634Z,1.88
2022-09-12T12:33:45.774Z,2.53
2022-09-12T12:36:39.761Z,1.60
2022-09-12T12:39:31.832Z,2.10
2022-09-12T12:42:00.281Z,4.47
2022-09-12T12:44:45.964Z,2.35
2022-09-12T12:47:19.107Z,1.50
2022-09-12T12:50:00.470Z,1.20
2022-09-12T12:52:32.680Z,1.80
2022-09-12T12:55:04.890Z,1.75
2022-09-12T12:58:00.038Z,1.50
2022-09-12T13:00:32.241Z,1.55
2022-09-12T13:02:59.900Z,1.58
2022-09-12T13:05:30.845Z,1.30
2022-09-12T13:08:28.755Z,1.35
2022-09-12T13:11:07.502Z,1.42
2022-09-12T13:13:57.252Z,3.78
2022-09-12T13:16:37.200Z,2.53
2022-09-12T13:19:08.170Z,1.70
2022-09-12T13:21:35.572Z,1.73
2022-09-12T13:24:16.020Z,2.20
2022-09-12T13:26:47.071Z,1.50
2022-09-12T13:29:22.623Z,1.67
2022-09-12T13:31:59.360Z,1.48
2022-09-12T13:34:41.892Z,1.55
2022-09-12T13:37:24.553Z,2.17
2022-09-12T13:40:15.873Z,1.40
2022-09-12T13:42:48.872Z,1.60
2022-09-12T13:45:20.440Z,1.67
2022-09-12T13:47:54.291Z,1.55
2022-09-12T13:50:27.860Z,1.50
2022-09-12T13:53:03.754Z,1.80
2022-09-12T13:55:36.801Z,1.50
2022-09-12T13:58:06.571Z,1.90
2022-09-12T14:00:35.115Z,1.45
2022-09-12T14:03:32.000Z,1.80
2022-09-12T14:05:59.730Z,1.67
2022-09-12T14:08:27.320Z,1.98
2022-09-12T14:10:54.890Z,2.00
2022-09-12T14:13:26.460Z,1.92
2022-09-12T14:15:56.234Z,1.80
2022-09-12T14:18:28.720Z,1.67
2022-09-12T15:24:50.660Z,2.05
2022-09-12T15:27:17.833Z,1.95
2022-09-12T15:29:44.971Z,1.80
2022-09-12T15:32:22.631Z,1.70
2022-09-12T15:34:49.900Z,1.70
2022-09-12T15:37:18.251Z,1.73
2022-09-12T15:39:46.858Z,1.90
2022-09-12T15:42:15.510Z,2.35
2022-09-12T15:44:43.236Z,2.00
2022-09-12T15:47:14.030Z,2.22
2022-09-12T15:49:41.411Z,2.20
2022-09-12T15:52:15.050Z,2.00
2022-09-12T15:54:43.400Z,1.52
2022-09-12T15:57:10.590Z,1.90
2022-09-12T15:59:37.810Z,2.00
2022-09-12T16:02:05.102Z,1.75
2022-09-12T16:04:32.350Z,1.80
2022-09-12T16:06:59.562Z,1.77
2022-09-12T16:09:26.770Z,1.90
2022-09-12T16:11:53.931Z,2.10
2022-09-12T16:14:21.458Z,1.90
2022-09-12T16:16:56.201Z,2.30
2022-09-12T16:19:23.500Z,2.10
2022-09-12T16:21:50.850Z,2.10
2022-09-12T16:24:18.040Z,1.70
2022-09-12T16:26:45.351Z,1.95
2022-09-12T16:29:14.012Z,1.67
2022-09-12T16:31:41.431Z,1.88
2022-09-12T16:34:08.730Z,2.85
2022-09-12T16:36:35.849Z,2.47
2022-09-12T16:39:03.269Z,2.10
2022-09-12T16:41:30.519Z,1.90
2022-09-12T16:43:57.780Z,1.90
2022-09-12T16:46:30.922Z,2.08
2022-09-12T16:48:59.130Z,1.95
2022-09-12T16:51:36.092Z,2.00
2022-09-12T16:54:04.186Z,2.05
2022-09-12T16:56:31.501Z,1.95
2022-09-12T16:58:58.808Z,2.17
2022-09-12T17:01:26.921Z,2.00
2022-09-12T17:03:56.803Z,1.80
2022-09-12T17:06:25.569Z,2.25
2022-09-12T17:08:54.491Z,2.67
2022-09-12T17:11:27.350Z,2.13
2022-09-12T17:14:11.752Z,1.80
2022-09-12T17:16:50.741Z,2.10
2022-09-12T17:19:26.713Z,2.53
2022-09-12T17:21:54.626Z,2.25
2022-09-12T17:24:23.209Z,1.80
2022-09-12T17:26:51.760Z,1.73
2022-09-12T17:29:19.150Z,2.25
2022-09-12T17:31:46.711Z,1.73
2022-09-12T17:34:17.909Z,2.10
2022-09-12T17:36:46.090Z,2.08
2022-09-12T17:39:14.351Z,1.98
2022-09-12T17:41:42.927Z,2.10
2022-09-12T17:44:15.326Z,1.77
2022-09-12T17:46:43.674Z,1.98
2022-09-12T17:49:16.058Z,1.73
2022-09-12T17:51:44.452Z,1.70
2022-09-12T17:54:15.830Z,1.92
2022-09-12T17:56:44.530Z,1.73
2022-09-12T17:59:16.210Z,2.15
2022-09-12T18:02:02.300Z,2.13
2022-09-12T18:04:29.989Z,2.10
2022-09-12T18:06:57.970Z,2.28
2022-09-12T18:09:25.410Z,1.80
2022-09-12T18:11:53.333Z,2.00
2022-09-12T18:14:21.012Z,2.10
2022-09-12T18:16:48.750Z,1.83
2022-09-12T18:19:17.001Z,2.15
2022-09-12T18:21:44.290Z,2.25
2022-09-12T18:24:12.359Z,2.20
2022-09-12T18:26:39.810Z,2.13
2022-09-12T18:29:07.931Z,1.80
2022-09-12T18:31:35.567Z,1.73
2022-09-12T18:34:03.010Z,2.00
2022-09-12T18:36:31.005Z,1.98
2022-09-12T18:41:41.089Z,2.17
2022-09-12T18:44:10.370Z,2.10
2022-09-12T18:46:38.034Z,1.60
2022-09-12T18:49:05.729Z,1.80
2022-09-12T18:51:36.115Z,1.73
2022-09-12T18:54:09.093Z,1.70
2022-09-12T18:59:20.100Z,1.92
2022-09-12T19:01:47.661Z,1.42
2022-09-12T19:04:16.485Z,1.70
2022-09-12T19:06:46.601Z,1.90
2022-09-12T19:09:16.452Z,1.98
2022-09-12T19:11:49.790Z,2.13
2022-09-12T19:14:19.973Z,2.25
2022-09-12T19:16:47.211Z,2.17
2022-09-12T19:19:14.480Z,1.92
2022-09-12T19:21:42.324Z,1.75
2022-09-12T19:24:10.476Z,1.70
2022-09-12T19:26:39.152Z,1.73
2022-09-12T19:29:07.300Z,1.63
2022-09-12T19:31:35.186Z,2.20
2022-09-12T19:34:04.761Z,2.30
2022-09-12T19:36:48.123Z,2.00
2022-09-12T19:39:19.756Z,2.00
2022-09-12T19:41:48.193Z,2.03
2022-09-12T19:44:15.596Z,2.13
2022-09-12T19:46:43.043Z,2.13
2022-09-12T19:51:53.090Z,1.80
2022-09-12T19:54:20.430Z,2.30
2022-09-12T19:56:47.830Z,2.00
2022-09-12T19:59:15.070Z,2.05
2022-09-12T20:01:42.500Z,2.22
2022-09-12T20:04:10.010Z,1.98
2022-09-12T20:06:37.390Z,2.33
2022-09-12T20:09:05.113Z,2.30
2022-09-12T20:11:32.430Z,2.17
2022-09-12T20:13:59.770Z,2.35
2022-09-12T20:16:29.807Z,2.22
2022-09-12T20:19:03.947Z,2.30
2022-09-12T20:21:33.132Z,2.42
2022-09-12T20:24:20.571Z,1.70
2022-09-12T20:26:47.980Z,2.17
2022-09-12T20:29:15.310Z,2.30
2022-09-12T20:31:43.418Z,2.08
2022-09-12T20:34:20.431Z,2.20
2022-09-12T20:36:48.380Z,2.00
2022-09-12T20:39:18.363Z,1.88
2022-09-12T20:41:46.531Z,1.80
2022-09-12T20:44:13.909Z,1.95
2022-09-12T20:46:41.968Z,1.77
2022-09-12T20:49:09.291Z,2.22
2022-09-12T20:51:36.850Z,2.05
2022-09-12T20:54:06.071Z,2.72
2022-09-12T20:56:36.630Z,2.08
2022-09-12T20:59:05.083Z,2.13
2022-09-12T21:01:33.111Z,2.88
2022-09-12T21:04:01.411Z,2.08
2022-09-12T21:06:29.010Z,2.28
2022-09-12T21:09:00.678Z,2.28
2022-09-12T21:11:28.862Z,2.80
2022-09-12T21:13:56.390Z,2.17
2022-09-12T21:16:24.238Z,2.45
2022-09-12T21:18:59.728Z,2.17
2022-09-12T21:21:27.151Z,2.47
2022-09-12T21:23:58.531Z,2.05
2022-09-12T21:26:26.130Z,1.83
2022-09-12T21:28:53.361Z,2.00
2022-09-12T21:31:21.217Z,2.08
2022-09-12T21:33:49.405Z,2.30
2022-09-12T21:36:16.840Z,2.10
2022-09-12T21:38:44.150Z,1.90
2022-09-12T21:41:14.030Z,2.08
2022-09-12T21:43:42.065Z,1.90
2022-09-12T21:46:10.200Z,2.10
2022-09-12T21:48:37.790Z,2.45
2022-09-12T21:51:05.355Z,2.22
2022-09-12T21:53:32.610Z,2.08
2022-09-12T21:56:05.092Z,2.10
2022-09-12T22:01:13.725Z,2.55
2022-09-12T22:03:43.212Z,2.20
2022-09-12T22:06:10.543Z,1.92
2022-09-12T22:08:39.084Z,1.90
2022-09-12T22:11:09.735Z,1.95
2022-09-12T22:13:43.564Z,1.70
2022-09-12T22:16:11.382Z,1.90
2022-09-12T22:18:38.725Z,2.38
2022-09-12T22:21:17.760Z,2.08
2022-09-12T22:24:03.643Z,2.40
2022-09-12T22:26:35.185Z,2.00
2022-09-12T22:29:02.543Z,2.20
2022-09-12T22:31:29.825Z,3.10
2022-09-12T22:33:59.847Z,2.40
2022-09-12T22:36:30.908Z,2.63
2022-09-12T22:38:59.566Z,2.22
2022-09-12T22:41:26.903Z,2.22
2022-09-12T22:43:54.175Z,2.70
2022-09-12T22:46:21.382Z,2.90
2022-09-12T22:48:48.624Z,2.47
2022-09-12T22:51:15.845Z,2.10
2022-09-12T22:53:43.493Z,2.83
2022-09-12T22:56:10.751Z,3.50
2022-09-12T22:58:38.485Z,3.95
2022-09-12T23:01:06.971Z,3.42
2022-09-12T23:03:35.359Z,3.30
2022-09-12T23:06:03.527Z,2.78
2022-09-12T23:08:30.754Z,3.05
2022-09-12T23:11:06.203Z,3.65
2022-09-12T23:13:34.023Z,3.15
2022-09-12T23:16:03.684Z,3.70
2022-09-12T23:18:31.013Z,3.83
2022-09-12T23:21:06.215Z,4.03
2022-09-12T23:23:33.683Z,3.67
2022-09-12T23:26:07.993Z,4.00
2022-09-12T23:28:35.994Z,3.92
2022-09-12T23:31:03.584Z,2.90
2022-09-12T23:33:32.024Z,3.95
2022-09-12T23:36:05.223Z,3.53
2022-09-12T23:38:33.714Z,3.78
2022-09-12T23:41:01.733Z,4.75
2022-09-12T23:43:29.353Z,4.03
2022-09-12T23:45:57.057Z,4.00
2022-09-12T23:48:24.565Z,3.90
2022-09-12T23:50:51.954Z,3.58
2022-09-12T23:53:20.563Z,4.25
2022-09-12T23:55:48.103Z,4.00
2022-09-12T23:58:15.821Z,4.65
